createdAt,value
2019-04-11T00:01:06.005Z,1.48
2019-04-11T00:03:35.568Z,1.44
2019-04-11T00:06:05.444Z,1.36
2019-04-11T00:08:35.787Z,1.35
2019-04-11T00:11:05.924Z,1.38
2019-04-11T00:13:36.417Z,1.34
2019-04-11T00:16:06.789Z,1.36
2019-04-11T00:18:35.916Z,1.32
2019-04-11T00:21:04.604Z,1.34
2019-04-11T00:23:34.347Z,1.34
2019-04-11T00:26:04.988Z,1.27
2019-04-11T00:28:34.156Z,1.26
2019-04-11T00:31:04.222Z,1.17
2019-04-11T00:33:34.058Z,1.18
2019-04-11T00:36:04.204Z,1.20
2019-04-11T00:38:34.096Z,1.18
2019-04-11T00:41:03.794Z,1.15
2019-04-11T00:43:37.697Z,1.14
2019-04-11T00:46:04.396Z,1.21
2019-04-11T00:48:33.541Z,1.25
2019-04-11T00:51:03.452Z,1.11
2019-04-11T00:53:32.515Z,1.19
2019-04-11T00:56:02.017Z,1.10
2019-04-11T00:58:31.870Z,1.10
2019-04-11T01:01:01.764Z,1.06
2019-04-11T01:03:30.724Z,1.01
2019-04-11T01:05:59.457Z,0.89
2019-04-11T01:08:29.381Z,0.82
2019-04-11T01:10:59.386Z,0.73
2019-04-11T01:13:39.697Z,0.70
2019-04-11T01:16:05.026Z,0.73
2019-04-11T01:18:34.039Z,0.86
2019-04-11T01:21:02.705Z,0.74
2019-04-11T01:23:31.496Z,0.72
2019-04-11T01:26:01.178Z,0.60
2019-04-11T01:28:31.007Z,0.76
2019-04-11T01:31:03.327Z,0.88
2019-04-11T01:33:32.227Z,0.74
2019-04-11T01:36:01.055Z,0.61
2019-04-11T01:38:30.900Z,0.50
2019-04-11T01:41:00.291Z,0.41
2019-04-11T01:43:29.614Z,0.48
2019-04-11T01:46:00.100Z,0.56
2019-04-11T01:48:43.899Z,0.51
2019-04-11T01:51:13.754Z,0.68
2019-04-11T01:53:43.580Z,0.67
2019-04-11T01:56:12.807Z,0.67
2019-04-11T01:58:42.601Z,0.53
2019-04-11T02:01:20.962Z,0.47
2019-04-11T02:04:03.580Z,0.54
2019-04-11T02:06:32.743Z,0.60
2019-04-11T02:09:03.746Z,0.69
2019-04-11T02:11:33.851Z,0.92
2019-04-11T02:14:10.439Z,0.94
2019-04-11T02:16:33.468Z,1.08
2019-04-11T02:19:02.302Z,0.95
2019-04-11T02:21:31.277Z,0.41
2019-04-11T02:24:05.924Z,0.22
2019-04-11T02:26:35.722Z,0.24
2019-04-11T02:29:05.433Z,0.39
2019-04-11T02:31:34.961Z,0.47
2019-04-11T02:34:06.438Z,0.45
2019-04-11T02:36:36.469Z,0.46
2019-04-11T02:39:12.946Z,0.62
2019-04-11T02:41:39.830Z,0.84
2019-04-11T02:44:28.590Z,0.81
2019-04-11T02:46:45.843Z,0.92
2019-04-11T02:49:10.237Z,0.88
2019-04-11T02:51:40.196Z,1.07
2019-04-11T02:54:09.163Z,1.04
2019-04-11T02:56:37.972Z,1.13
2019-04-11T02:59:06.719Z,1.27
2019-04-11T03:01:36.301Z,1.36
2019-04-11T03:04:07.185Z,1.50
2019-04-11T03:06:36.944Z,1.17
2019-04-11T03:09:07.256Z,0.97
2019-04-11T03:11:36.530Z,0.90
2019-04-11T03:14:05.370Z,0.85
2019-04-11T03:16:46.098Z,1.04
2019-04-11T03:19:18.002Z,1.25
2019-04-11T03:21:39.235Z,1.33
2019-04-11T03:24:10.364Z,1.44
2019-04-11T03:26:37.769Z,1.52
2019-04-11T03:29:08.470Z,1.56
2019-04-11T03:39:27.747Z,1.64
2019-04-11T03:41:54.671Z,1.59
2019-04-11T03:44:18.874Z,1.59
2019-04-11T03:46:53.925Z,1.64
2019-04-11T03:49:25.024Z,1.62
2019-04-11T03:51:45.404Z,1.66
2019-04-11T03:54:15.703Z,1.73
2019-04-11T03:56:45.820Z,1.72
2019-04-11T03:59:16.756Z,1.76
2019-04-11T04:01:46.750Z,1.79
2019-04-11T04:04:19.317Z,1.76
2019-04-11T04:06:47.897Z,1.82
2019-04-11T04:09:19.220Z,1.75
2019-04-11T04:11:49.485Z,1.77
2019-04-11T04:14:34.378Z,1.84
2019-04-11T04:17:25.344Z,1.81
2019-04-11T04:20:19.935Z,1.94
2019-04-11T04:23:03.021Z,1.93
2019-04-11T04:25:32.522Z,1.95
2019-04-11T04:28:02.902Z,1.93
2019-04-11T04:30:33.626Z,1.87
2019-04-11T04:33:02.860Z,1.97
2019-04-11T04:35:33.881Z,2.00
2019-04-11T04:38:05.150Z,2.01
2019-04-11T04:40:49.604Z,2.06
2019-04-11T04:43:07.617Z,2.19
2019-04-11T04:45:59.851Z,2.12
2019-04-11T04:48:11.490Z,2.18
2019-04-11T04:50:39.205Z,2.15
2019-04-11T04:53:09.265Z,2.13
2019-04-11T04:55:38.845Z,2.07
2019-04-11T04:58:09.116Z,1.96
2019-04-11T05:00:39.504Z,1.91
2019-04-11T05:03:09.883Z,1.91
2019-04-11T05:05:39.205Z,1.97
2019-04-11T05:08:08.476Z,1.98
2019-04-11T05:10:40.181Z,1.98
2019-04-11T05:13:09.922Z,2.04
2019-04-11T05:15:41.571Z,2.05
2019-04-11T05:18:11.478Z,2.15
2019-04-11T05:20:40.729Z,2.15
2019-04-11T05:23:09.647Z,2.14
2019-04-11T05:25:39.059Z,2.17
2019-04-11T05:28:07.743Z,2.19
2019-04-11T05:30:36.478Z,2.36
2019-04-11T05:33:06.010Z,2.33
2019-04-11T05:35:36.190Z,2.41
2019-04-11T05:38:05.043Z,2.48
2019-04-11T05:40:34.380Z,2.53
2019-04-11T05:43:03.879Z,2.56
2019-04-11T05:45:33.786Z,2.57
2019-04-11T05:48:05.153Z,2.62
2019-04-11T05:50:36.196Z,2.62
2019-04-11T05:53:05.615Z,2.75
2019-04-11T05:55:41.560Z,2.66
2019-04-11T05:58:12.296Z,2.68
2019-04-11T06:00:50.761Z,2.70
2019-04-11T06:03:19.604Z,2.73
2019-04-11T06:05:59.931Z,2.84
2019-04-11T06:08:29.118Z,2.87
2019-04-11T06:11:14.578Z,2.90
2019-04-11T06:13:46.881Z,2.94
2019-04-11T06:16:16.757Z,3.00
2019-04-11T06:18:59.068Z,3.10
2019-04-11T06:21:31.739Z,3.21
2019-04-11T06:24:18.208Z,3.28
2019-04-11T06:26:54.646Z,3.36
2019-04-11T06:29:35.185Z,3.42
2019-04-11T06:32:23.580Z,3.58
2019-04-11T06:34:58.071Z,3.71
2019-04-11T06:37:45.488Z,3.58
2019-04-11T06:40:24.827Z,3.67
2019-04-11T06:43:01.447Z,3.65
2019-04-11T06:45:58.633Z,3.65
2019-04-11T06:48:35.992Z,3.77
2019-04-11T06:51:15.613Z,3.82
2019-04-11T06:53:52.954Z,3.95
2019-04-11T06:56:36.938Z,4.00
2019-04-11T06:59:10.158Z,4.16
2019-04-11T07:01:41.000Z,4.16
2019-04-11T07:04:25.371Z,4.29
2019-04-11T07:06:55.880Z,4.16
2019-04-11T07:09:49.645Z,4.20
2019-04-11T07:12:25.002Z,4.30
2019-04-11T07:15:25.180Z,4.34
2019-04-11T07:18:11.966Z,4.52
2019-04-11T07:21:00.639Z,4.57
2019-04-11T07:23:49.010Z,4.85
2019-04-11T07:26:27.395Z,4.78
2019-04-11T07:29:21.816Z,4.78
2019-04-11T07:32:09.423Z,4.64
2019-04-11T07:34:56.570Z,4.78
2019-04-11T07:37:36.768Z,4.99
2019-04-11T07:40:29.369Z,5.07
2019-04-11T07:43:19.081Z,5.07
2019-04-11T07:45:55.933Z,5.00
2019-04-11T07:48:29.241Z,5.06
2019-04-11T07:51:08.853Z,5.07
2019-04-11T07:53:40.382Z,5.13
2019-04-11T07:56:09.840Z,5.13
2019-04-11T07:58:45.971Z,5.28
2019-04-11T08:01:40.376Z,5.44
2019-04-11T08:04:27.765Z,5.64
2019-04-11T08:07:16.344Z,5.64
2019-04-11T08:09:50.654Z,5.33
2019-04-11T08:12:23.465Z,5.34
2019-04-11T08:15:29.913Z,5.38
2019-04-11T08:18:01.981Z,5.38
2019-04-11T08:20:50.008Z,5.48
2019-04-11T08:23:20.030Z,5.55
2019-04-11T08:26:17.940Z,5.58
2019-04-11T08:28:59.283Z,5.81
2019-04-11T08:31:30.738Z,6.02
2019-04-11T08:34:02.769Z,5.93
2019-04-11T08:36:50.495Z,5.88
2019-04-11T08:39:26.035Z,6.00
2019-04-11T08:42:17.727Z,5.85
2019-04-11T08:44:48.016Z,5.83
2019-04-11T08:47:18.766Z,5.96
2019-04-11T08:49:52.865Z,5.64
2019-04-11T08:52:29.791Z,5.52
2019-04-11T08:55:02.349Z,5.54
2019-04-11T08:57:34.247Z,5.58
2019-04-11T09:00:26.203Z,5.28
2019-04-11T09:03:01.773Z,5.28
2019-04-11T09:05:41.287Z,5.13
2019-04-11T09:08:30.032Z,4.48
2019-04-11T09:11:26.694Z,3.86
2019-04-11T09:14:20.349Z,3.86
2019-04-11T09:17:10.616Z,3.89
2019-04-11T09:20:13.672Z,3.89
2019-04-11T09:23:01.833Z,3.93
2019-04-11T09:26:05.676Z,4.24
2019-04-11T09:28:37.661Z,4.43
2019-04-11T09:31:41.733Z,5.01
2019-04-11T09:34:43.928Z,5.64
2019-04-11T09:37:31.065Z,5.64
2019-04-11T09:40:26.091Z,5.92
2019-04-11T09:43:12.962Z,6.31
2019-04-11T09:46:16.512Z,6.77
2019-04-11T09:49:04.396Z,6.80
2019-04-11T09:51:52.019Z,7.24
2019-04-11T09:54:44.213Z,7.67
2019-04-11T09:57:32.629Z,7.82
2019-04-11T10:00:26.579Z,7.45
2019-04-11T10:03:02.445Z,6.55
2019-04-11T10:05:59.319Z,6.55
2019-04-11T10:08:37.435Z,6.39
2019-04-11T10:11:24.248Z,5.74
2019-04-11T10:14:02.287Z,4.90
2019-04-11T10:17:06.554Z,4.46
2019-04-11T10:19:40.373Z,4.21
2019-04-11T10:22:29.168Z,4.12
2019-04-11T10:25:03.356Z,4.16
2019-04-11T10:27:51.016Z,4.32
2019-04-11T10:30:48.291Z,4.54
2019-04-11T10:33:39.489Z,5.03
2019-04-11T10:36:19.245Z,5.30
2019-04-11T10:38:49.407Z,5.30
2019-04-11T10:41:36.089Z,5.58
2019-04-11T10:44:05.575Z,5.60
2019-04-11T10:46:59.906Z,5.74
2019-04-11T10:49:50.891Z,5.93
2019-04-11T10:52:24.662Z,5.87
2019-04-11T10:55:21.872Z,6.56
2019-04-11T10:58:02.655Z,6.59
2019-04-11T11:00:45.321Z,6.93
2019-04-11T11:03:22.507Z,6.73
2019-04-11T11:05:53.597Z,6.90
2019-04-11T11:08:41.776Z,6.77
2019-04-11T11:11:30.430Z,6.57
2019-04-11T11:14:24.871Z,6.58
2019-04-11T11:17:00.579Z,6.62
2019-04-11T11:19:59.703Z,6.67
2019-04-11T11:22:34.472Z,6.78
2019-04-11T11:25:22.460Z,6.92
2019-04-11T11:27:52.355Z,7.00
2019-04-11T11:30:40.246Z,6.92
2019-04-11T11:33:09.954Z,6.92
2019-04-11T11:36:02.688Z,6.82
2019-04-11T11:38:31.274Z,6.78
2019-04-11T11:41:20.676Z,6.61
2019-04-11T11:43:50.184Z,6.72
2019-04-11T11:46:36.337Z,6.55
2019-04-11T11:49:18.930Z,6.49
2019-04-11T11:52:11.093Z,6.63
2019-04-11T11:54:44.173Z,6.49
2019-04-11T11:57:35.306Z,6.61
2019-04-11T12:00:16.901Z,6.58
2019-04-11T12:02:54.039Z,6.58
2019-04-11T12:05:36.727Z,6.54
2019-04-11T12:08:24.448Z,6.26
2019-04-11T12:11:01.766Z,6.04
2019-04-11T12:13:55.867Z,5.90
2019-04-11T12:16:33.105Z,5.86
2019-04-11T12:19:24.914Z,5.70
2019-04-11T12:21:55.858Z,5.74
2019-04-11T12:24:46.328Z,5.72
2019-04-11T12:27:28.942Z,5.72
2019-04-11T12:30:10.743Z,5.79
2019-04-11T12:32:52.915Z,5.79
2019-04-11T12:35:38.123Z,5.86
2019-04-11T12:38:12.812Z,5.96
2019-04-11T12:40:59.348Z,5.96
2019-04-11T12:43:41.323Z,5.89
2019-04-11T12:46:30.128Z,5.90
2019-04-11T12:49:06.138Z,5.83
2019-04-11T12:51:57.146Z,6.00
2019-04-11T12:54:28.874Z,6.00
2019-04-11T12:57:19.757Z,6.06
2019-04-11T12:59:50.038Z,6.03
2019-04-11T13:02:33.620Z,6.20
2019-04-11T13:05:03.401Z,6.30
2019-04-11T13:07:49.908Z,6.36
2019-04-11T13:10:43.892Z,6.33
2019-04-11T13:13:30.493Z,6.20
2019-04-11T13:16:12.064Z,6.10
2019-04-11T13:19:03.865Z,5.96
2019-04-11T13:21:39.709Z,6.06
2019-04-11T13:24:26.324Z,5.86
2019-04-11T13:27:13.957Z,6.06
2019-04-11T13:30:04.908Z,6.09
2019-04-11T13:32:52.793Z,6.12
2019-04-11T13:35:28.461Z,6.23
2019-04-11T13:38:11.390Z,6.09
2019-04-11T13:41:02.861Z,6.29
2019-04-11T13:43:43.506Z,6.16
2019-04-11T13:46:26.737Z,6.09
2019-04-11T13:49:13.501Z,6.04
2019-04-11T13:52:07.261Z,5.69
2019-04-11T13:55:01.057Z,5.69
2019-04-11T13:57:57.936Z,5.60
2019-04-11T14:00:49.917Z,5.59
2019-04-11T14:03:43.843Z,5.42
2019-04-11T14:06:35.981Z,5.47
2019-04-11T14:09:38.314Z,5.47
2019-04-11T14:12:12.017Z,5.48
2019-04-11T14:14:43.828Z,5.48
2019-04-11T14:17:41.599Z,5.38
2019-04-11T14:20:30.136Z,5.38
2019-04-11T14:23:17.469Z,5.39
2019-04-11T14:26:14.390Z,5.68
2019-04-11T14:29:14.375Z,5.68
2019-04-11T14:31:55.706Z,5.63
2019-04-11T14:34:35.769Z,5.71
2019-04-11T14:37:15.113Z,5.44
2019-04-11T14:39:46.540Z,5.47
2019-04-11T14:42:24.571Z,5.46
2019-04-11T14:44:53.521Z,5.56
2019-04-11T14:47:44.128Z,5.72
2019-04-11T14:50:13.406Z,5.83
2019-04-11T14:52:59.565Z,5.83
2019-04-11T14:55:28.572Z,5.86
2019-04-11T14:58:09.120Z,5.54
2019-04-11T15:00:42.175Z,5.46
2019-04-11T15:03:18.163Z,5.38
2019-04-11T15:06:15.346Z,5.38
2019-04-11T15:09:03.051Z,5.17
2019-04-11T15:11:43.496Z,5.17
2019-04-11T15:14:19.434Z,5.17
2019-04-11T15:17:10.302Z,4.92
2019-04-11T15:19:39.444Z,4.65
2019-04-11T15:22:27.334Z,4.61
2019-04-11T15:25:01.801Z,4.63
2019-04-11T15:27:58.829Z,4.66
2019-04-11T15:30:28.330Z,4.66
2019-04-11T15:33:14.937Z,4.70
2019-04-11T15:35:44.167Z,4.70
2019-04-11T15:38:37.842Z,4.76
2019-04-11T15:41:07.335Z,4.73
2019-04-11T15:44:01.343Z,4.56
2019-04-11T15:46:32.618Z,4.58
2019-04-11T15:49:23.421Z,4.62
2019-04-11T15:51:55.904Z,4.62
2019-04-11T15:54:43.828Z,4.58
2019-04-11T15:57:37.663Z,4.71
2019-04-11T16:00:29.357Z,4.71
2019-04-11T16:03:08.848Z,4.79
2019-04-11T16:05:55.925Z,4.77
2019-04-11T16:08:32.891Z,4.79
2019-04-11T16:11:19.521Z,4.73
2019-04-11T16:13:59.139Z,4.73
2019-04-11T16:16:39.713Z,4.72
2019-04-11T16:19:33.669Z,4.72
2019-04-11T16:22:24.729Z,4.80
2019-04-11T16:24:53.282Z,4.82
2019-04-11T16:27:54.383Z,4.82
2019-04-11T16:30:23.296Z,4.93
2019-04-11T16:33:09.893Z,4.93
2019-04-11T16:35:46.113Z,4.93
2019-04-11T16:38:18.814Z,5.01
2019-04-11T16:41:04.458Z,4.93
2019-04-11T16:43:33.495Z,4.96
2019-04-11T16:46:24.823Z,4.96
2019-04-11T16:48:55.892Z,5.21
2019-04-11T16:51:30.759Z,5.21
2019-04-11T16:53:55.407Z,5.47
2019-04-11T16:56:24.158Z,5.63
2019-04-11T16:58:52.786Z,6.04
2019-04-11T17:01:23.213Z,6.44
2019-04-11T17:03:54.897Z,6.49
2019-04-11T17:06:49.048Z,6.47
2019-04-11T17:09:29.664Z,5.72
2019-04-11T17:11:58.413Z,5.65
2019-04-11T17:14:28.417Z,6.00
2019-04-11T17:17:00.713Z,5.93
2019-04-11T17:19:28.799Z,6.12
2019-04-11T17:21:57.420Z,5.86
2019-04-11T17:24:26.590Z,5.78
2019-04-11T17:26:55.179Z,5.47
2019-04-11T17:29:24.902Z,4.92
2019-04-11T17:31:56.050Z,4.69
2019-04-11T17:34:25.273Z,4.69
2019-04-11T17:36:54.138Z,4.63
2019-04-11T17:39:22.775Z,4.56
2019-04-11T17:41:51.439Z,4.40
2019-04-11T17:44:20.304Z,4.40
2019-04-11T17:46:49.470Z,4.41
2019-04-11T17:49:18.141Z,4.41
2019-04-11T17:51:55.681Z,4.38
2019-04-11T17:54:17.390Z,4.41
2019-04-11T17:56:46.285Z,4.33
2019-04-11T17:59:15.192Z,4.34
2019-04-11T18:01:43.823Z,4.35
2019-04-11T18:04:13.619Z,4.28
2019-04-11T18:06:46.961Z,4.26
2019-04-11T18:09:13.564Z,4.33
2019-04-11T18:11:42.704Z,4.33
2019-04-11T18:14:11.429Z,4.30
2019-04-11T18:16:40.056Z,4.36
2019-04-11T18:19:09.877Z,4.36
2019-04-11T18:21:39.265Z,4.28
2019-04-11T18:24:08.290Z,4.32
2019-04-11T18:26:37.190Z,4.24
2019-04-11T18:29:06.098Z,4.22
2019-04-11T18:31:34.766Z,4.20
2019-04-11T18:34:03.466Z,4.20
2019-04-11T18:36:32.562Z,4.04
2019-04-11T18:39:05.611Z,4.05
2019-04-11T18:41:31.941Z,4.18
2019-04-11T18:44:00.572Z,4.05
2019-04-11T18:46:29.723Z,4.05
2019-04-11T18:48:58.879Z,3.98
2019-04-11T18:51:30.346Z,3.98
2019-04-11T18:53:58.708Z,3.94
2019-04-11T18:56:27.844Z,3.94
2019-04-11T18:58:57.082Z,3.87
2019-04-11T19:01:26.822Z,3.88
2019-04-11T19:03:55.772Z,3.88
2019-04-11T19:06:28.007Z,3.88
2019-04-11T19:08:55.088Z,3.77
2019-04-11T19:11:23.861Z,3.79
2019-04-11T19:13:52.760Z,3.75
2019-04-11T19:16:21.639Z,3.75
2019-04-11T19:18:50.297Z,3.78
2019-04-11T19:21:21.068Z,3.76
2019-04-11T19:23:49.955Z,3.72
2019-04-11T19:26:18.859Z,3.74
2019-04-11T19:28:49.277Z,3.84
2019-04-11T19:31:18.591Z,3.84
2019-04-11T19:33:47.429Z,3.85
2019-04-11T19:36:16.400Z,3.81
2019-04-11T19:38:45.361Z,3.78
2019-04-11T19:41:17.101Z,3.83
2019-04-11T19:43:44.391Z,3.92
2019-04-11T19:46:13.072Z,3.92
2019-04-11T19:48:41.720Z,4.00
2019-04-11T19:51:11.852Z,3.95
2019-04-11T19:53:40.998Z,3.91
2019-04-11T19:56:33.064Z,3.84
2019-04-11T19:59:02.037Z,3.70
2019-04-11T20:01:31.236Z,3.70
2019-04-11T20:04:00.482Z,3.82
2019-04-11T20:06:29.155Z,3.73
2019-04-11T20:08:58.117Z,3.82
2019-04-11T20:11:29.434Z,3.75
2019-04-11T20:14:00.029Z,3.71
2019-04-11T20:16:28.556Z,3.71
2019-04-11T20:18:58.600Z,3.71
2019-04-11T20:21:28.163Z,3.70
2019-04-11T20:23:57.572Z,3.72
2019-04-11T20:26:26.860Z,3.73
2019-04-11T20:28:56.351Z,3.73
2019-04-11T20:31:24.984Z,3.74
2019-04-11T20:33:53.624Z,3.64
2019-04-11T20:36:32.875Z,3.63
2019-04-11T20:38:53.396Z,3.63
2019-04-11T20:41:23.252Z,3.59
2019-04-11T20:43:55.882Z,3.57
2019-04-11T20:46:23.683Z,3.53
2019-04-11T20:48:54.632Z,3.53
2019-04-11T20:51:23.364Z,3.54
2019-04-11T20:53:52.246Z,3.56
2019-04-11T20:56:24.436Z,3.49
2019-04-11T20:58:52.091Z,3.56
2019-04-11T21:01:21.161Z,3.49
2019-04-11T21:03:50.024Z,3.48
2019-04-11T21:06:18.656Z,3.52
2019-04-11T21:08:47.635Z,3.51
2019-04-11T21:11:18.637Z,3.54
2019-04-11T21:13:47.458Z,3.41
2019-04-11T21:16:16.247Z,3.44
2019-04-11T21:18:45.122Z,3.51
2019-04-11T21:21:13.992Z,3.47
2019-04-11T21:23:42.860Z,3.49
2019-04-11T21:26:11.503Z,3.52
2019-04-11T21:28:40.455Z,3.48
2019-04-11T21:31:09.260Z,3.50
2019-04-11T21:33:38.156Z,3.50
2019-04-11T21:36:07.257Z,3.49
2019-04-11T21:38:35.861Z,3.56
2019-04-11T21:41:06.112Z,3.40
2019-04-11T21:43:36.300Z,3.36
2019-04-11T21:46:06.951Z,3.36
2019-04-11T21:48:36.644Z,3.48
2019-04-11T21:51:06.093Z,3.40
2019-04-11T21:53:36.885Z,3.36
2019-04-11T21:56:05.119Z,3.36
2019-04-11T21:58:33.971Z,3.39
2019-04-11T22:01:07.989Z,3.38
2019-04-11T22:03:37.219Z,3.31
2019-04-11T22:06:06.179Z,3.43
2019-04-11T22:08:35.126Z,3.39
2019-04-11T22:11:04.351Z,3.40
2019-04-11T22:13:33.225Z,3.32
2019-04-11T22:16:01.860Z,3.30
2019-04-11T22:18:30.531Z,3.27
2019-04-11T22:20:59.407Z,3.31
2019-04-11T22:23:28.836Z,3.36
2019-04-11T22:25:57.705Z,3.34
2019-04-11T22:28:26.555Z,3.36
2019-04-11T22:30:55.768Z,3.28
2019-04-11T22:33:31.514Z,3.28
2019-04-11T22:36:00.156Z,3.30
2019-04-11T22:38:30.976Z,3.36
2019-04-11T22:41:02.036Z,3.29
2019-04-11T22:43:30.363Z,3.33
2019-04-11T22:45:59.692Z,3.30
2019-04-11T22:48:28.307Z,3.37
2019-04-11T22:50:57.283Z,3.32
2019-04-11T22:53:25.886Z,3.25
2019-04-11T22:55:55.003Z,3.28
2019-04-11T22:58:24.167Z,3.35
2019-04-11T23:00:53.272Z,3.38
2019-04-11T23:03:26.026Z,3.30
2019-04-11T23:05:54.885Z,3.24
2019-04-11T23:08:23.778Z,3.28
2019-04-11T23:10:52.415Z,3.31
2019-04-11T23:13:21.705Z,3.21
2019-04-11T23:15:50.573Z,3.27
2019-04-11T23:18:19.311Z,3.27
2019-04-11T23:20:47.901Z,3.29
2019-04-11T23:23:16.765Z,3.31
2019-04-11T23:25:46.051Z,3.24
2019-04-11T23:28:15.875Z,3.25
2019-04-11T23:30:49.506Z,3.23
2019-04-11T23:33:15.761Z,3.23
2019-04-11T23:35:44.979Z,3.21
2019-04-11T23:38:13.867Z,3.21
2019-04-11T23:40:42.500Z,3.11
2019-04-11T23:43:11.461Z,3.14
2019-04-11T23:45:40.349Z,3.14
2019-04-11T23:48:09.226Z,3.11
2019-04-11T23:50:38.301Z,3.07
2019-04-11T23:53:07.442Z,3.09
2019-04-11T23:55:36.308Z,2.95
2019-04-11T23:58:05.622Z,2.88
